Aviation Digital Data Service (ADDS)

Output produced by METARs form (1203 UTC 18 June 2019)
found at http://www.aviationweather.gov/metar/data/
 
Forecast for: ZHHH (WUHAN/NANHU , CN)
Text: TAF ZHHH 180810Z 1812/1912 04003MPS 4000 BR SCT020 TX30/1907Z TN23/1822Z
Forecast period: 1200 UTC 18 June 2019 to 1200 UTC 19 June 2019
Forecast type: FROM: standard forecast or significant change
Winds: from the NE (40 degrees) at 7 MPH (6 knots; 3.1 m/s)
Visibility: 2.49 miles (4.01 km)
Ceiling: at least 12,000 feet AGL
Clouds: scattered clouds at 2000 feet AGL
Weather: BR  (mist)
Text: TEMPO 1812/1816 3000 -RA BR
Forecast period: 1200 to 1600 UTC 18 June 2019
Forecast type: TEMPORARY: The following changes expected for less than half the time period
Visibility: 1.86 miles (2.99 km)
Ceiling: unknown
Clouds: missing
Weather: -RA BR  (light rain, mist)